sensor_id;sensor_type;location;lat;lon;timestamp;P1;durP1;ratioP1;P2;durP2;ratioP2
9160;SDS011;4615;51.340;8.288;2023-04-03T00:00:26;2.58;;;2.08;;
9160;SDS011;4615;51.340;8.288;2023-04-03T00:02:52;3.92;;;2.33;;
9160;SDS011;4615;51.340;8.288;2023-04-03T00:05:19;4.20;;;2.60;;
9160;SDS011;4615;51.340;8.288;2023-04-03T00:07:45;2.95;;;2.10;;
9160;SDS011;4615;51.340;8.288;2023-04-03T00:10:12;5.47;;;2.40;;
9160;SDS011;4615;51.340;8.288;2023-04-03T00:12:39;5.00;;;2.80;;
9160;SDS011;4615;51.340;8.288;2023-04-03T00:15:05;4.55;;;2.30;;
9160;SDS011;4615;51.340;8.288;2023-04-03T00:17:33;4.35;;;2.40;;
9160;SDS011;4615;51.340;8.288;2023-04-03T00:20:00;4.38;;;2.10;;
9160;SDS011;4615;51.340;8.288;2023-04-03T00:22:26;3.75;;;2.42;;
9160;SDS011;4615;51.340;8.288;2023-04-03T00:24:53;4.83;;;2.50;;
9160;SDS011;4615;51.340;8.288;2023-04-03T00:27:20;4.28;;;2.50;;
9160;SDS011;4615;51.340;8.288;2023-04-03T00:29:46;3.97;;;2.20;;
9160;SDS011;4615;51.340;8.288;2023-04-03T00:32:13;4.35;;;2.47;;
9160;SDS011;4615;51.340;8.288;2023-04-03T00:34:40;4.10;;;2.40;;
9160;SDS011;4615;51.340;8.288;2023-04-03T00:37:07;4.35;;;2.30;;
9160;SDS011;4615;51.340;8.288;2023-04-03T00:39:33;3.67;;;2.20;;
9160;SDS011;4615;51.340;8.288;2023-04-03T00:42:00;5.28;;;2.40;;
9160;SDS011;4615;51.340;8.288;2023-04-03T00:47:08;3.63;;;2.30;;
9160;SDS011;4615;51.340;8.288;2023-04-03T00:49:35;3.90;;;2.45;;
9160;SDS011;4615;51.340;8.288;2023-04-03T00:52:03;4.10;;;2.20;;
9160;SDS011;4615;51.340;8.288;2023-04-03T00:54:31;5.10;;;2.50;;
9160;SDS011;4615;51.340;8.288;2023-04-03T00:56:58;4.30;;;2.80;;
9160;SDS011;4615;51.340;8.288;2023-04-03T00:59:25;5.05;;;2.40;;
9160;SDS011;4615;51.340;8.288;2023-04-03T01:01:53;4.10;;;2.30;;
9160;SDS011;4615;51.340;8.288;2023-04-03T01:04:26;4.13;;;2.33;;
9160;SDS011;4615;51.340;8.288;2023-04-03T01:06:53;4.43;;;2.40;;
9160;SDS011;4615;51.340;8.288;2023-04-03T01:09:22;3.75;;;2.17;;
9160;SDS011;4615;51.340;8.288;2023-04-03T01:11:49;4.28;;;2.20;;
9160;SDS011;4615;51.340;8.288;2023-04-03T01:14:15;3.80;;;2.10;;
9160;SDS011;4615;51.340;8.288;2023-04-03T01:16:41;2.90;;;2.00;;
9160;SDS011;4615;51.340;8.288;2023-04-03T01:19:08;5.28;;;2.30;;
9160;SDS011;4615;51.340;8.288;2023-04-03T01:21:50;5.32;;;2.38;;
9160;SDS011;4615;51.340;8.288;2023-04-03T01:24:27;3.72;;;2.05;;
9160;SDS011;4615;51.340;8.288;2023-04-03T01:26:55;3.42;;;2.20;;
9160;SDS011;4615;51.340;8.288;2023-04-03T01:29:22;5.53;;;2.70;;
9160;SDS011;4615;51.340;8.288;2023-04-03T01:31:51;4.82;;;2.38;;
9160;SDS011;4615;51.340;8.288;2023-04-03T01:34:18;4.43;;;2.40;;
9160;SDS011;4615;51.340;8.288;2023-04-03T01:36:44;4.38;;;2.40;;
9160;SDS011;4615;51.340;8.288;2023-04-03T01:39:11;4.22;;;2.33;;
9160;SDS011;4615;51.340;8.288;2023-04-03T01:41:38;3.47;;;2.17;;
9160;SDS011;4615;51.340;8.288;2023-04-03T01:44:04;4.47;;;2.20;;
9160;SDS011;4615;51.340;8.288;2023-04-03T01:46:31;3.75;;;2.20;;
9160;SDS011;4615;51.340;8.288;2023-04-03T01:48:58;3.88;;;2.40;;
9160;SDS011;4615;51.340;8.288;2023-04-03T01:51:25;4.30;;;2.30;;
9160;SDS011;4615;51.340;8.288;2023-04-03T01:53:51;4.25;;;2.42;;
9160;SDS011;4615;51.340;8.288;2023-04-03T01:56:18;4.38;;;2.20;;
9160;SDS011;4615;51.340;8.288;2023-04-03T01:58:45;3.75;;;2.45;;
9160;SDS011;4615;51.340;8.288;2023-04-03T02:01:11;3.85;;;2.30;;
9160;SDS011;4615;51.340;8.288;2023-04-03T02:03:38;4.28;;;2.30;;
9160;SDS011;4615;51.340;8.288;2023-04-03T02:06:06;3.55;;;2.40;;
9160;SDS011;4615;51.340;8.288;2023-04-03T02:08:32;4.90;;;3.00;;
9160;SDS011;4615;51.340;8.288;2023-04-03T02:10:58;4.82;;;3.40;;
9160;SDS011;4615;51.340;8.288;2023-04-03T02:13:25;5.20;;;3.60;;
9160;SDS011;4615;51.340;8.288;2023-04-03T02:15:51;3.78;;;3.13;;
9160;SDS011;4615;51.340;8.288;2023-04-03T02:18:18;3.95;;;2.97;;
9160;SDS011;4615;51.340;8.288;2023-04-03T02:20:45;5.57;;;2.97;;
9160;SDS011;4615;51.340;8.288;2023-04-03T02:23:13;4.03;;;2.67;;
9160;SDS011;4615;51.340;8.288;2023-04-03T02:25:40;5.28;;;2.65;;
9160;SDS011;4615;51.340;8.288;2023-04-03T02:28:06;3.92;;;2.45;;
9160;SDS011;4615;51.340;8.288;2023-04-03T02:30:33;4.50;;;2.58;;
9160;SDS011;4615;51.340;8.288;2023-04-03T02:32:59;4.13;;;2.50;;
9160;SDS011;4615;51.340;8.288;2023-04-03T02:35:25;3.85;;;2.20;;
9160;SDS011;4615;51.340;8.288;2023-04-03T02:37:52;4.10;;;2.45;;
9160;SDS011;4615;51.340;8.288;2023-04-03T02:40:20;5.18;;;2.53;;
9160;SDS011;4615;51.340;8.288;2023-04-03T02:42:46;5.57;;;2.83;;
9160;SDS011;4615;51.340;8.288;2023-04-03T02:45:12;5.25;;;2.75;;
9160;SDS011;4615;51.340;8.288;2023-04-03T02:47:39;4.63;;;2.83;;
9160;SDS011;4615;51.340;8.288;2023-04-03T02:50:06;5.63;;;2.72;;
9160;SDS011;4615;51.340;8.288;2023-04-03T02:52:32;5.97;;;3.10;;
9160;SDS011;4615;51.340;8.288;2023-04-03T02:54:59;4.60;;;2.70;;
9160;SDS011;4615;51.340;8.288;2023-04-03T02:57:26;5.00;;;2.70;;
9160;SDS011;4615;51.340;8.288;2023-04-03T02:59:53;4.97;;;2.53;;
9160;SDS011;4615;51.340;8.288;2023-04-03T03:02:19;4.53;;;2.70;;
9160;SDS011;4615;51.340;8.288;2023-04-03T03:04:46;6.13;;;2.60;;
9160;SDS011;4615;51.340;8.288;2023-04-03T03:07:12;5.28;;;2.67;;
9160;SDS011;4615;51.340;8.288;2023-04-03T03:09:38;5.33;;;2.83;;
9160;SDS011;4615;51.340;8.288;2023-04-03T03:12:05;6.57;;;2.83;;
9160;SDS011;4615;51.340;8.288;2023-04-03T03:14:33;4.00;;;2.60;;
9160;SDS011;4615;51.340;8.288;2023-04-03T03:16:59;4.90;;;2.47;;
9160;SDS011;4615;51.340;8.288;2023-04-03T03:19:25;5.40;;;2.65;;
9160;SDS011;4615;51.340;8.288;2023-04-03T03:21:52;5.72;;;2.72;;
9160;SDS011;4615;51.340;8.288;2023-04-03T03:24:18;7.45;;;3.00;;
9160;SDS011;4615;51.340;8.288;2023-04-03T03:26:45;5.55;;;2.88;;
9160;SDS011;4615;51.340;8.288;2023-04-03T03:29:11;6.13;;;2.78;;
9160;SDS011;4615;51.340;8.288;2023-04-03T03:31:39;5.88;;;3.58;;
9160;SDS011;4615;51.340;8.288;2023-04-03T03:34:05;8.27;;;4.78;;
9160;SDS011;4615;51.340;8.288;2023-04-03T03:36:32;6.82;;;4.35;;
9160;SDS011;4615;51.340;8.288;2023-04-03T03:38:58;7.53;;;4.13;;
9160;SDS011;4615;51.340;8.288;2023-04-03T03:41:24;5.95;;;3.92;;
9160;SDS011;4615;51.340;8.288;2023-04-03T03:43:51;5.55;;;4.15;;
9160;SDS011;4615;51.340;8.288;2023-04-03T03:46:17;7.05;;;4.35;;
9160;SDS011;4615;51.340;8.288;2023-04-03T03:48:45;6.35;;;3.72;;
9160;SDS011;4615;51.340;8.288;2023-04-03T03:51:11;7.27;;;4.00;;
9160;SDS011;4615;51.340;8.288;2023-04-03T03:53:38;6.82;;;3.25;;
9160;SDS011;4615;51.340;8.288;2023-04-03T03:56:05;5.13;;;3.13;;
9160;SDS011;4615;51.340;8.288;2023-04-03T03:58:31;7.03;;;3.50;;
9160;SDS011;4615;51.340;8.288;2023-04-03T04:00:59;5.38;;;3.25;;
9160;SDS011;4615;51.340;8.288;2023-04-03T04:03:26;5.57;;;2.80;;
9160;SDS011;4615;51.340;8.288;2023-04-03T04:05:54;6.15;;;3.20;;
9160;SDS011;4615;51.340;8.288;2023-04-03T04:08:20;6.10;;;3.20;;
9160;SDS011;4615;51.340;8.288;2023-04-03T04:10:46;5.88;;;3.35;;
9160;SDS011;4615;51.340;8.288;2023-04-03T04:13:13;6.73;;;3.70;;
9160;SDS011;4615;51.340;8.288;2023-04-03T04:15:39;6.90;;;3.15;;
9160;SDS011;4615;51.340;8.288;2023-04-03T04:18:06;6.55;;;3.50;;
9160;SDS011;4615;51.340;8.288;2023-04-03T04:20:32;5.55;;;3.40;;
9160;SDS011;4615;51.340;8.288;2023-04-03T04:23:00;6.50;;;3.53;;
9160;SDS011;4615;51.340;8.288;2023-04-03T04:25:26;5.57;;;3.30;;
9160;SDS011;4615;51.340;8.288;2023-04-03T04:27:53;6.55;;;3.50;;
9160;SDS011;4615;51.340;8.288;2023-04-03T04:30:19;6.88;;;3.60;;
9160;SDS011;4615;51.340;8.288;2023-04-03T04:32:45;5.82;;;3.60;;
9160;SDS011;4615;51.340;8.288;2023-04-03T04:35:12;5.60;;;3.67;;
9160;SDS011;4615;51.340;8.288;2023-04-03T04:37:38;7.10;;;3.80;;
9160;SDS011;4615;51.340;8.288;2023-04-03T04:40:07;7.60;;;4.07;;
9160;SDS011;4615;51.340;8.288;2023-04-03T04:42:33;8.00;;;4.30;;
9160;SDS011;4615;51.340;8.288;2023-04-03T04:45:00;9.88;;;4.45;;
9160;SDS011;4615;51.340;8.288;2023-04-03T04:47:27;7.13;;;4.00;;
9160;SDS011;4615;51.340;8.288;2023-04-03T04:49:54;8.10;;;3.90;;
9160;SDS011;4615;51.340;8.288;2023-04-03T04:52:21;7.35;;;3.60;;
9160;SDS011;4615;51.340;8.288;2023-04-03T04:54:47;6.18;;;3.45;;
9160;SDS011;4615;51.340;8.288;2023-04-03T04:57:15;5.65;;;3.58;;
9160;SDS011;4615;51.340;8.288;2023-04-03T04:59:42;6.47;;;3.72;;
9160;SDS011;4615;51.340;8.288;2023-04-03T05:02:08;8.43;;;4.00;;
9160;SDS011;4615;51.340;8.288;2023-04-03T05:04:35;7.68;;;3.50;;
9160;SDS011;4615;51.340;8.288;2023-04-03T05:07:01;8.50;;;3.80;;
9160;SDS011;4615;51.340;8.288;2023-04-03T05:09:27;6.00;;;3.63;;
9160;SDS011;4615;51.340;8.288;2023-04-03T05:11:54;6.00;;;3.60;;
9160;SDS011;4615;51.340;8.288;2023-04-03T05:14:22;7.18;;;3.70;;
9160;SDS011;4615;51.340;8.288;2023-04-03T05:16:49;5.88;;;3.20;;
9160;SDS011;4615;51.340;8.288;2023-04-03T05:19:18;5.57;;;3.88;;
9160;SDS011;4615;51.340;8.288;2023-04-03T05:21:44;6.07;;;3.50;;
9160;SDS011;4615;51.340;8.288;2023-04-03T05:24:10;8.77;;;3.70;;
9160;SDS011;4615;51.340;8.288;2023-04-03T05:26:37;6.57;;;3.42;;
9160;SDS011;4615;51.340;8.288;2023-04-03T05:29:04;5.80;;;3.65;;
9160;SDS011;4615;51.340;8.288;2023-04-03T05:31:32;6.55;;;3.40;;
9160;SDS011;4615;51.340;8.288;2023-04-03T05:33:58;6.35;;;3.70;;
9160;SDS011;4615;51.340;8.288;2023-04-03T05:36:24;5.82;;;3.63;;
9160;SDS011;4615;51.340;8.288;2023-04-03T05:38:51;7.03;;;4.10;;
9160;SDS011;4615;51.340;8.288;2023-04-03T05:41:18;6.97;;;3.50;;
9160;SDS011;4615;51.340;8.288;2023-04-03T05:43:45;6.97;;;3.28;;
9160;SDS011;4615;51.340;8.288;2023-04-03T05:46:13;6.72;;;3.70;;
9160;SDS011;4615;51.340;8.288;2023-04-03T05:48:41;7.40;;;3.60;;
9160;SDS011;4615;51.340;8.288;2023-04-03T05:51:09;7.90;;;3.50;;
9160;SDS011;4615;51.340;8.288;2023-04-03T05:53:39;9.68;;;3.88;;
9160;SDS011;4615;51.340;8.288;2023-04-03T05:56:06;7.15;;;3.63;;
9160;SDS011;4615;51.340;8.288;2023-04-03T05:58:32;6.93;;;3.85;;
9160;SDS011;4615;51.340;8.288;2023-04-03T06:00:59;7.40;;;4.20;;
9160;SDS011;4615;51.340;8.288;2023-04-03T06:03:25;7.25;;;4.03;;
9160;SDS011;4615;51.340;8.288;2023-04-03T06:05:54;6.72;;;3.92;;
9160;SDS011;4615;51.340;8.288;2023-04-03T06:08:21;6.93;;;3.88;;
9160;SDS011;4615;51.340;8.288;2023-04-03T06:10:48;7.38;;;3.95;;
9160;SDS011;4615;51.340;8.288;2023-04-03T06:13:15;6.88;;;3.53;;
9160;SDS011;4615;51.340;8.288;2023-04-03T06:15:42;6.80;;;3.88;;
9160;SDS011;4615;51.340;8.288;2023-04-03T06:18:08;7.00;;;3.50;;
9160;SDS011;4615;51.340;8.288;2023-04-03T06:20:35;6.20;;;3.00;;
9160;SDS011;4615;51.340;8.288;2023-04-03T06:23:03;7.50;;;3.60;;
9160;SDS011;4615;51.340;8.288;2023-04-03T06:25:29;9.60;;;4.30;;
9160;SDS011;4615;51.340;8.288;2023-04-03T06:27:56;8.17;;;4.50;;
9160;SDS011;4615;51.340;8.288;2023-04-03T06:30:23;7.85;;;4.20;;
9160;SDS011;4615;51.340;8.288;2023-04-03T06:32:49;5.68;;;3.50;;
9160;SDS011;4615;51.340;8.288;2023-04-03T06:35:16;6.43;;;3.67;;
9160;SDS011;4615;51.340;8.288;2023-04-03T06:37:42;6.47;;;3.30;;
9160;SDS011;4615;51.340;8.288;2023-04-03T06:40:11;6.97;;;3.28;;
9160;SDS011;4615;51.340;8.288;2023-04-03T06:42:41;5.93;;;2.97;;
9160;SDS011;4615;51.340;8.288;2023-04-03T06:45:07;6.00;;;3.08;;
9160;SDS011;4615;51.340;8.288;2023-04-03T06:47:36;7.38;;;3.42;;
9160;SDS011;4615;51.340;8.288;2023-04-03T06:50:03;6.07;;;2.90;;
9160;SDS011;4615;51.340;8.288;2023-04-03T06:52:29;6.70;;;3.30;;
9160;SDS011;4615;51.340;8.288;2023-04-03T06:54:56;7.63;;;3.45;;
9160;SDS011;4615;51.340;8.288;2023-04-03T06:57:25;7.28;;;3.13;;
9160;SDS011;4615;51.340;8.288;2023-04-03T06:59:52;6.30;;;3.20;;
9160;SDS011;4615;51.340;8.288;2023-04-03T07:02:19;6.93;;;3.42;;
9160;SDS011;4615;51.340;8.288;2023-04-03T07:04:45;7.30;;;3.10;;
9160;SDS011;4615;51.340;8.288;2023-04-03T07:07:12;6.88;;;3.30;;
9160;SDS011;4615;51.340;8.288;2023-04-03T07:09:38;8.30;;;3.05;;
9160;SDS011;4615;51.340;8.288;2023-04-03T07:12:05;6.65;;;2.85;;
9160;SDS011;4615;51.340;8.288;2023-04-03T07:14:32;5.45;;;2.80;;
9160;SDS011;4615;51.340;8.288;2023-04-03T07:16:59;6.13;;;3.05;;
9160;SDS011;4615;51.340;8.288;2023-04-03T07:19:26;6.28;;;2.30;;
9160;SDS011;4615;51.340;8.288;2023-04-03T07:21:53;5.53;;;2.50;;
9160;SDS011;4615;51.340;8.288;2023-04-03T07:24:19;6.30;;;3.00;;
9160;SDS011;4615;51.340;8.288;2023-04-03T07:26:48;5.47;;;2.30;;
9160;SDS011;4615;51.340;8.288;2023-04-03T07:29:15;4.53;;;2.15;;
9160;SDS011;4615;51.340;8.288;2023-04-03T07:31:43;5.28;;;2.50;;
9160;SDS011;4615;51.340;8.288;2023-04-03T07:34:09;5.63;;;2.92;;
9160;SDS011;4615;51.340;8.288;2023-04-03T07:36:36;5.93;;;3.13;;
9160;SDS011;4615;51.340;8.288;2023-04-03T07:39:02;7.45;;;4.18;;
9160;SDS011;4615;51.340;8.288;2023-04-03T07:41:29;6.30;;;2.95;;
9160;SDS011;4615;51.340;8.288;2023-04-03T07:43:55;6.03;;;3.23;;
9160;SDS011;4615;51.340;8.288;2023-04-03T07:46:21;6.22;;;2.70;;
9160;SDS011;4615;51.340;8.288;2023-04-03T07:48:49;3.72;;;2.20;;
9160;SDS011;4615;51.340;8.288;2023-04-03T07:51:16;4.63;;;2.40;;
9160;SDS011;4615;51.340;8.288;2023-04-03T07:53:42;6.10;;;2.55;;
9160;SDS011;4615;51.340;8.288;2023-04-03T07:56:09;6.07;;;2.92;;
9160;SDS011;4615;51.340;8.288;2023-04-03T07:58:35;4.85;;;2.20;;
9160;SDS011;4615;51.340;8.288;2023-04-03T08:01:02;4.00;;;2.30;;
9160;SDS011;4615;51.340;8.288;2023-04-03T08:03:28;4.45;;;2.30;;
9160;SDS011;4615;51.340;8.288;2023-04-03T08:06:00;4.15;;;2.17;;
9160;SDS011;4615;51.340;8.288;2023-04-03T08:08:27;5.13;;;2.20;;
9160;SDS011;4615;51.340;8.288;2023-04-03T08:10:54;4.32;;;2.33;;
9160;SDS011;4615;51.340;8.288;2023-04-03T08:13:21;4.95;;;2.50;;
9160;SDS011;4615;51.340;8.288;2023-04-03T08:15:48;4.68;;;2.15;;
9160;SDS011;4615;51.340;8.288;2023-04-03T08:18:15;4.15;;;2.00;;
9160;SDS011;4615;51.340;8.288;2023-04-03T08:20:41;3.95;;;1.92;;
9160;SDS011;4615;51.340;8.288;2023-04-03T08:23:09;4.15;;;2.15;;
9160;SDS011;4615;51.340;8.288;2023-04-03T08:25:37;4.85;;;2.20;;
9160;SDS011;4615;51.340;8.288;2023-04-03T08:28:03;3.70;;;1.90;;
9160;SDS011;4615;51.340;8.288;2023-04-03T08:30:30;3.58;;;1.92;;
9160;SDS011;4615;51.340;8.288;2023-04-03T08:32:56;3.53;;;1.88;;
9160;SDS011;4615;51.340;8.288;2023-04-03T08:35:23;5.53;;;2.05;;
9160;SDS011;4615;51.340;8.288;2023-04-03T08:37:49;3.77;;;1.90;;
9160;SDS011;4615;51.340;8.288;2023-04-03T08:40:17;5.22;;;1.98;;
9160;SDS011;4615;51.340;8.288;2023-04-03T08:42:46;2.50;;;1.60;;
9160;SDS011;4615;51.340;8.288;2023-04-03T08:45:19;2.03;;;1.58;;
9160;SDS011;4615;51.340;8.288;2023-04-03T08:47:49;3.58;;;2.00;;
9160;SDS011;4615;51.340;8.288;2023-04-03T08:50:18;4.65;;;2.08;;
9160;SDS011;4615;51.340;8.288;2023-04-03T08:52:47;3.15;;;1.60;;
9160;SDS011;4615;51.340;8.288;2023-04-03T08:55:19;2.55;;;1.60;;
9160;SDS011;4615;51.340;8.288;2023-04-03T08:57:47;3.00;;;1.63;;
9160;SDS011;4615;51.340;8.288;2023-04-03T09:00:16;2.45;;;1.40;;
9160;SDS011;4615;51.340;8.288;2023-04-03T09:02:43;4.18;;;1.40;;
9160;SDS011;4615;51.340;8.288;2023-04-03T09:05:11;3.58;;;1.48;;
9160;SDS011;4615;51.340;8.288;2023-04-03T09:07:39;3.53;;;1.88;;
9160;SDS011;4615;51.340;8.288;2023-04-03T09:10:08;3.40;;;1.65;;
9160;SDS011;4615;51.340;8.288;2023-04-03T09:12:38;3.28;;;1.60;;
9160;SDS011;4615;51.340;8.288;2023-04-03T09:15:10;4.30;;;1.55;;
9160;SDS011;4615;51.340;8.288;2023-04-03T09:17:41;3.05;;;1.60;;
9160;SDS011;4615;51.340;8.288;2023-04-03T09:20:14;3.10;;;1.27;;
9160;SDS011;4615;51.340;8.288;2023-04-03T09:22:43;3.97;;;1.60;;
9160;SDS011;4615;51.340;8.288;2023-04-03T09:25:11;1.85;;;1.30;;
9160;SDS011;4615;51.340;8.288;2023-04-03T09:27:40;2.80;;;1.30;;
9160;SDS011;4615;51.340;8.288;2023-04-03T09:30:12;2.47;;;1.50;;
9160;SDS011;4615;51.340;8.288;2023-04-03T09:32:39;2.63;;;1.67;;
9160;SDS011;4615;51.340;8.288;2023-04-03T09:35:13;2.45;;;1.50;;
9160;SDS011;4615;51.340;8.288;2023-04-03T09:37:43;3.85;;;2.58;;
9160;SDS011;4615;51.340;8.288;2023-04-03T09:42:57;2.53;;;1.40;;
9160;SDS011;4615;51.340;8.288;2023-04-03T09:45:25;2.53;;;1.60;;
9160;SDS011;4615;51.340;8.288;2023-04-03T09:48:03;4.43;;;1.90;;
9160;SDS011;4615;51.340;8.288;2023-04-03T09:50:30;3.33;;;1.70;;
9160;SDS011;4615;51.340;8.288;2023-04-03T09:52:56;2.53;;;1.75;;
9160;SDS011;4615;51.340;8.288;2023-04-03T09:55:24;3.63;;;1.98;;
9160;SDS011;4615;51.340;8.288;2023-04-03T09:57:54;3.60;;;1.80;;
9160;SDS011;4615;51.340;8.288;2023-04-03T10:00:23;2.92;;;1.58;;
9160;SDS011;4615;51.340;8.288;2023-04-03T10:02:51;2.08;;;1.63;;
9160;SDS011;4615;51.340;8.288;2023-04-03T10:05:25;2.45;;;1.70;;
9160;SDS011;4615;51.340;8.288;2023-04-03T10:07:52;3.47;;;1.60;;
9160;SDS011;4615;51.340;8.288;2023-04-03T10:10:32;4.55;;;1.77;;
9160;SDS011;4615;51.340;8.288;2023-04-03T10:13:06;2.60;;;1.50;;
9160;SDS011;4615;51.340;8.288;2023-04-03T10:15:36;4.40;;;1.80;;
9160;SDS011;4615;51.340;8.288;2023-04-03T10:18:04;2.30;;;1.58;;
9160;SDS011;4615;51.340;8.288;2023-04-03T10:20:34;2.40;;;1.48;;
9160;SDS011;4615;51.340;8.288;2023-04-03T10:23:08;4.00;;;1.80;;
9160;SDS011;4615;51.340;8.288;2023-04-03T10:25:40;2.27;;;1.50;;
9160;SDS011;4615;51.340;8.288;2023-04-03T10:28:08;3.80;;;2.10;;
9160;SDS011;4615;51.340;8.288;2023-04-03T10:30:41;2.97;;;1.75;;
9160;SDS011;4615;51.340;8.288;2023-04-03T10:33:15;2.65;;;1.50;;
9160;SDS011;4615;51.340;8.288;2023-04-03T10:35:44;4.88;;;1.95;;
9160;SDS011;4615;51.340;8.288;2023-04-03T10:38:15;3.33;;;1.75;;
9160;SDS011;4615;51.340;8.288;2023-04-03T10:40:47;3.33;;;1.65;;
9160;SDS011;4615;51.340;8.288;2023-04-03T10:43:16;4.28;;;1.73;;
9160;SDS011;4615;51.340;8.288;2023-04-03T10:45:51;2.08;;;1.55;;
9160;SDS011;4615;51.340;8.288;2023-04-03T10:48:23;2.75;;;1.60;;
9160;SDS011;4615;51.340;8.288;2023-04-03T10:50:53;2.42;;;1.70;;
9160;SDS011;4615;51.340;8.288;2023-04-03T10:53:24;2.60;;;1.67;;
9160;SDS011;4615;51.340;8.288;2023-04-03T10:55:58;3.70;;;1.58;;
9160;SDS011;4615;51.340;8.288;2023-04-03T10:58:29;4.20;;;1.70;;
9160;SDS011;4615;51.340;8.288;2023-04-03T11:00:59;3.63;;;1.50;;
9160;SDS011;4615;51.340;8.288;2023-04-03T11:03:29;3.58;;;1.80;;
9160;SDS011;4615;51.340;8.288;2023-04-03T11:05:57;3.23;;;1.80;;
9160;SDS011;4615;51.340;8.288;2023-04-03T11:08:26;3.95;;;1.80;;
9160;SDS011;4615;51.340;8.288;2023-04-03T11:10:54;2.15;;;1.50;;
9160;SDS011;4615;51.340;8.288;2023-04-03T11:13:22;3.70;;;1.70;;
9160;SDS011;4615;51.340;8.288;2023-04-03T11:15:50;3.08;;;1.80;;
9160;SDS011;4615;51.340;8.288;2023-04-03T11:18:20;3.20;;;1.83;;
9160;SDS011;4615;51.340;8.288;2023-04-03T11:20:50;2.85;;;1.70;;
9160;SDS011;4615;51.340;8.288;2023-04-03T11:23:18;3.15;;;1.80;;
9160;SDS011;4615;51.340;8.288;2023-04-03T11:25:45;3.38;;;2.20;;
9160;SDS011;4615;51.340;8.288;2023-04-03T11:28:13;3.03;;;1.70;;
9160;SDS011;4615;51.340;8.288;2023-04-03T11:30:41;3.20;;;1.90;;
9160;SDS011;4615;51.340;8.288;2023-04-03T11:35:55;2.83;;;1.77;;
9160;SDS011;4615;51.340;8.288;2023-04-03T11:38:25;2.95;;;1.80;;
9160;SDS011;4615;51.340;8.288;2023-04-03T11:40:54;3.33;;;1.60;;
9160;SDS011;4615;51.340;8.288;2023-04-03T11:43:23;2.87;;;1.73;;
9160;SDS011;4615;51.340;8.288;2023-04-03T11:45:55;3.53;;;1.70;;
9160;SDS011;4615;51.340;8.288;2023-04-03T12:02:53;3.42;;;2.30;;
9160;SDS011;4615;51.340;8.288;2023-04-03T12:05:26;3.22;;;2.03;;
9160;SDS011;4615;51.340;8.288;2023-04-03T12:10:34;3.57;;;2.00;;
9160;SDS011;4615;51.340;8.288;2023-04-03T12:13:01;4.25;;;2.25;;
9160;SDS011;4615;51.340;8.288;2023-04-03T12:21:14;4.15;;;2.05;;
9160;SDS011;4615;51.340;8.288;2023-04-03T12:23:56;3.40;;;1.90;;
9160;SDS011;4615;51.340;8.288;2023-04-03T12:26:23;5.15;;;2.53;;
9160;SDS011;4615;51.340;8.288;2023-04-03T12:28:51;3.27;;;1.80;;
9160;SDS011;4615;51.340;8.288;2023-04-03T12:31:18;2.10;;;1.60;;
9160;SDS011;4615;51.340;8.288;2023-04-03T12:33:58;5.72;;;2.90;;
9160;SDS011;4615;51.340;8.288;2023-04-03T12:36:30;5.53;;;3.00;;
9160;SDS011;4615;51.340;8.288;2023-04-03T12:41:50;3.90;;;2.65;;
9160;SDS011;4615;51.340;8.288;2023-04-03T12:44:23;4.07;;;2.67;;
9160;SDS011;4615;51.340;8.288;2023-04-03T12:46:51;3.65;;;1.80;;
9160;SDS011;4615;51.340;8.288;2023-04-03T12:49:22;2.92;;;1.98;;
9160;SDS011;4615;51.340;8.288;2023-04-03T12:51:54;2.47;;;1.63;;
9160;SDS011;4615;51.340;8.288;2023-04-03T12:54:22;3.28;;;1.70;;
9160;SDS011;4615;51.340;8.288;2023-04-03T12:56:49;3.60;;;1.80;;
9160;SDS011;4615;51.340;8.288;2023-04-03T12:59:16;3.47;;;2.13;;
9160;SDS011;4615;51.340;8.288;2023-04-03T13:01:44;3.70;;;2.00;;
9160;SDS011;4615;51.340;8.288;2023-04-03T13:04:18;2.57;;;1.77;;
9160;SDS011;4615;51.340;8.288;2023-04-03T13:06:45;3.42;;;2.03;;
9160;SDS011;4615;51.340;8.288;2023-04-03T13:09:23;3.17;;;1.98;;
9160;SDS011;4615;51.340;8.288;2023-04-03T13:11:51;3.47;;;2.00;;
9160;SDS011;4615;51.340;8.288;2023-04-03T13:14:20;2.78;;;1.80;;
9160;SDS011;4615;51.340;8.288;2023-04-03T13:16:53;2.63;;;1.70;;
9160;SDS011;4615;51.340;8.288;2023-04-03T13:19:20;3.85;;;1.83;;
9160;SDS011;4615;51.340;8.288;2023-04-03T13:21:48;3.63;;;1.65;;
9160;SDS011;4615;51.340;8.288;2023-04-03T13:24:16;3.90;;;2.03;;
9160;SDS011;4615;51.340;8.288;2023-04-03T13:26:44;3.60;;;1.77;;
9160;SDS011;4615;51.340;8.288;2023-04-03T13:29:18;3.37;;;1.70;;
9160;SDS011;4615;51.340;8.288;2023-04-03T13:31:46;3.58;;;1.98;;
9160;SDS011;4615;51.340;8.288;2023-04-03T13:34:20;3.20;;;1.92;;
9160;SDS011;4615;51.340;8.288;2023-04-03T13:36:54;2.70;;;1.67;;
9160;SDS011;4615;51.340;8.288;2023-04-03T13:39:22;3.13;;;2.00;;
9160;SDS011;4615;51.340;8.288;2023-04-03T13:41:51;3.00;;;1.90;;
9160;SDS011;4615;51.340;8.288;2023-04-03T13:44:22;3.70;;;2.08;;
9160;SDS011;4615;51.340;8.288;2023-04-03T13:46:51;4.22;;;2.00;;
9160;SDS011;4615;51.340;8.288;2023-04-03T13:49:19;3.92;;;2.10;;
9160;SDS011;4615;51.340;8.288;2023-04-03T13:51:46;3.80;;;1.90;;
9160;SDS011;4615;51.340;8.288;2023-04-03T13:54:16;3.45;;;1.80;;
9160;SDS011;4615;51.340;8.288;2023-04-03T13:56:43;3.42;;;1.80;;
9160;SDS011;4615;51.340;8.288;2023-04-03T13:59:22;4.20;;;1.95;;
9160;SDS011;4615;51.340;8.288;2023-04-03T14:01:50;2.67;;;1.80;;
9160;SDS011;4615;51.340;8.288;2023-04-03T14:04:18;4.00;;;2.00;;
9160;SDS011;4615;51.340;8.288;2023-04-03T14:06:46;2.40;;;1.70;;
9160;SDS011;4615;51.340;8.288;2023-04-03T14:09:12;2.83;;;1.90;;
9160;SDS011;4615;51.340;8.288;2023-04-03T14:11:39;3.15;;;1.83;;
9160;SDS011;4615;51.340;8.288;2023-04-03T14:14:09;2.83;;;1.80;;
9160;SDS011;4615;51.340;8.288;2023-04-03T14:16:40;3.60;;;2.20;;
9160;SDS011;4615;51.340;8.288;2023-04-03T14:19:07;3.13;;;1.98;;
9160;SDS011;4615;51.340;8.288;2023-04-03T14:21:33;3.07;;;1.97;;
9160;SDS011;4615;51.340;8.288;2023-04-03T14:23:59;3.65;;;1.70;;
9160;SDS011;4615;51.340;8.288;2023-04-03T14:26:27;3.85;;;1.90;;
9160;SDS011;4615;51.340;8.288;2023-04-03T14:28:55;3.17;;;1.88;;
9160;SDS011;4615;51.340;8.288;2023-04-03T14:31:22;2.83;;;1.70;;
9160;SDS011;4615;51.340;8.288;2023-04-03T14:33:50;3.97;;;2.28;;
9160;SDS011;4615;51.340;8.288;2023-04-03T14:36:18;3.13;;;1.93;;
9160;SDS011;4615;51.340;8.288;2023-04-03T14:38:45;3.55;;;2.00;;
9160;SDS011;4615;51.340;8.288;2023-04-03T14:41:12;4.07;;;2.00;;
9160;SDS011;4615;51.340;8.288;2023-04-03T14:43:39;4.13;;;1.98;;
9160;SDS011;4615;51.340;8.288;2023-04-03T14:46:08;3.88;;;2.28;;
9160;SDS011;4615;51.340;8.288;2023-04-03T14:48:37;2.97;;;2.10;;
9160;SDS011;4615;51.340;8.288;2023-04-03T14:51:05;3.77;;;2.00;;
9160;SDS011;4615;51.340;8.288;2023-04-03T14:53:31;3.40;;;2.30;;
9160;SDS011;4615;51.340;8.288;2023-04-03T14:55:59;3.50;;;2.50;;
9160;SDS011;4615;51.340;8.288;2023-04-03T14:58:25;3.20;;;1.90;;
9160;SDS011;4615;51.340;8.288;2023-04-03T15:00:51;3.80;;;1.85;;
9160;SDS011;4615;51.340;8.288;2023-04-03T15:03:19;2.70;;;1.75;;
9160;SDS011;4615;51.340;8.288;2023-04-03T15:05:46;3.72;;;2.03;;
9160;SDS011;4615;51.340;8.288;2023-04-03T15:08:17;2.87;;;2.00;;
9160;SDS011;4615;51.340;8.288;2023-04-03T15:10:44;3.40;;;2.30;;
9160;SDS011;4615;51.340;8.288;2023-04-03T15:13:11;3.95;;;2.03;;
9160;SDS011;4615;51.340;8.288;2023-04-03T15:15:38;3.35;;;1.92;;
9160;SDS011;4615;51.340;8.288;2023-04-03T15:18:04;2.70;;;2.00;;
9160;SDS011;4615;51.340;8.288;2023-04-03T15:20:31;3.67;;;2.10;;
9160;SDS011;4615;51.340;8.288;2023-04-03T15:22:58;3.78;;;2.40;;
9160;SDS011;4615;51.340;8.288;2023-04-03T15:25:27;3.13;;;2.10;;
9160;SDS011;4615;51.340;8.288;2023-04-03T15:27:54;4.70;;;2.03;;
9160;SDS011;4615;51.340;8.288;2023-04-03T15:30:21;2.95;;;1.90;;
9160;SDS011;4615;51.340;8.288;2023-04-03T15:32:47;2.40;;;1.80;;
9160;SDS011;4615;51.340;8.288;2023-04-03T15:35:14;2.80;;;2.15;;
9160;SDS011;4615;51.340;8.288;2023-04-03T15:37:41;4.22;;;2.90;;
9160;SDS011;4615;51.340;8.288;2023-04-03T15:40:08;4.30;;;3.10;;
9160;SDS011;4615;51.340;8.288;2023-04-03T15:42:36;3.88;;;2.67;;
9160;SDS011;4615;51.340;8.288;2023-04-03T15:45:02;4.82;;;2.63;;
9160;SDS011;4615;51.340;8.288;2023-04-03T15:47:29;3.00;;;2.08;;
9160;SDS011;4615;51.340;8.288;2023-04-03T15:49:55;4.40;;;2.70;;
9160;SDS011;4615;51.340;8.288;2023-04-03T15:52:22;4.50;;;3.10;;